Terminal Aerodrome Forecast
Issued by NWS

Home | Current Version | Previous Version | Graphics & Text | Print | Product List | Glossary On
Versions: 1 2 3 4 5 6 7 8 9 10 11 12 13 14 15 16
000
FTUS43 KBIS 011200 AAA
TAFMOT
TAF AMD
KMOT 011242Z 0113/0212 22011KT P6SM FEW015 SCT100
     FM011600 27011KT P6SM SCT050
      TEMPO 0117/0120 4SM -SN BKN020=

USA.gov is the U.S. government's official web portal to all federal, state and local government web resources and services.